Time;durP1;ratioP1;P1;durP2;ratioP2;P2;SDS_P1;SDS_P2;PMS_P1;PMS_P2;Temp;Humidity;BMP_temperature;BMP_pressure;BME280_temperature;BME280_humidity;BME280_pressure;Samples;Min_cycle;Max_cycle;Signal;HPM_P1;HPM_P2
2023/04/14 00:01:13;;;;;;;;;;;;;;;4.12;74.95;91753.94;2038797;70;20610;-73
2023/04/14 00:03:38;;;;;;;;;;;;;;;4.53;73.39;91757.44;2038917;69;20111;-73
2023/04/14 00:06:07;;;;;;;;;;;;;;;4.56;73.09;91751.41;2038479;70;20607;-73
2023/04/14 00:08:33;;;;;;;;;;;;;;;4.69;72.35;91757.81;2051078;70;20055;-74
2023/04/14 00:10:58;;;;;;;;;;;;;;;4.63;72.50;91754.59;2038574;70;20146;-74
2023/04/14 00:13:24;;;;;;;;;;;;;;;4.53;72.59;91749.06;2038462;69;20519;-74
2023/04/14 00:15:49;;;;;;;;;;;;;;;4.64;72.25;91759.59;2038512;69;20060;-74
2023/04/14 00:21:43;;;;;;;;;;;;;;;4.64;72.70;91759.59;2038281;70;20582;-73
2023/04/14 00:24:09;;;;;;;;;;;;;;;4.33;73.25;91756.81;2038708;69;20060;-73
2023/04/14 00:30:04;;;;;;;;;;;;;;;4.64;72.15;91753.28;2036337;70;20126;-73
2023/04/14 00:32:33;;;;;;;;;;;;;;;4.69;72.46;91749.44;2035288;70;20537;-73
2023/04/14 00:35:01;;;;;;;;;;;;;;;4.67;72.17;91749.28;2035203;70;20560;-73
2023/04/14 00:37:27;;;;;;;;;;;;;;;4.70;72.29;91745.31;2029299;70;20567;-73
2023/04/14 00:39:53;;;;;;;;;;;;;;;4.70;72.22;91745.31;2032121;70;20053;-73
2023/04/14 00:42:18;;;;;;;;;;;;;;;4.69;71.95;91746.66;2035493;70;20053;-73
2023/04/14 00:44:46;;;;;;;;;;;;;;;4.71;71.95;91741.19;2032342;70;20079;-73
2023/04/14 00:47:11;;;;;;;;;;;;;;;4.61;72.20;91738.47;2035434;70;20088;-73
2023/04/14 00:49:37;;;;;;;;;;;;;;;4.68;71.89;91737.56;2032153;70;20091;-72
2023/04/14 00:55:32;;;;;;;;;;;;;;;4.69;71.57;91733.44;2035235;70;20055;-72
2023/04/14 00:57:59;;;;;;;;;;;;;;;4.14;73.66;91738.13;2035132;70;20056;-72
2023/04/14 01:00:25;;;;;;;;;;;;;;;4.22;73.91;91735.16;2031897;70;20103;-72
2023/04/14 01:06:18;;;;;;;;;;;;;;;4.23;73.71;91740.13;2035426;70;20052;-72
2023/04/14 01:08:44;;;;;;;;;;;;;;;4.15;74.05;91736.06;2035482;70;20088;-73
2023/04/14 01:11:11;;;;;;;;;;;;;;;3.74;75.27;91741.63;2029446;70;20058;-72
2023/04/14 01:13:51;;;;;;;;;;;;;;;4.03;73.91;91742.28;2031883;70;20056;-73
2023/04/14 01:16:20;;;;;;;;;;;;;;;4.16;73.80;91738.25;2031846;70;20083;-72
2023/04/14 01:18:51;;;;;;;;;;;;;;;4.31;73.24;91742.75;2032382;70;20432;-71
2023/04/14 01:21:21;;;;;;;;;;;;;;;4.46;72.40;91744.44;2035758;70;20057;-72
2023/04/14 01:24:07;;;;;;;;;;;;;;;4.42;72.84;91735.78;2032007;70;20559;-72
2023/04/14 01:26:33;;;;;;;;;;;;;;;4.46;72.18;91733.28;2032218;70;20052;-72
2023/04/14 01:29:00;;;;;;;;;;;;;;;4.49;72.61;91734.88;2029980;70;20056;-72
2023/04/14 01:31:47;;;;;;;;;;;;;;;4.47;72.54;91737.53;2032327;70;20049;-73
2023/04/14 01:34:21;;;;;;;;;;;;;;;4.42;72.69;91733.75;2032405;70;20148;-73
2023/04/14 01:37:01;;;;;;;;;;;;;;;4.48;72.04;91734.13;2032276;70;20069;-73
2023/04/14 01:39:30;;;;;;;;;;;;;;;4.43;73.02;91735.19;2035572;70;20526;-73
2023/04/14 01:42:01;;;;;;;;;;;;;;;4.48;73.00;91734.13;2032333;70;20061;-73
2023/04/14 01:47:56;;;;;;;;;;;;;;;4.49;72.97;91718.13;2035852;70;20146;-74
2023/04/14 01:50:24;;;;;;;;;;;;;;;4.54;72.35;91723.41;2035727;70;20140;-72
2023/04/14 01:52:55;;;;;;;;;;;;;;;4.48;72.64;91717.41;2035801;70;20052;-73
2023/04/14 01:55:25;;;;;;;;;;;;;;;4.50;72.85;91700.13;2032841;70;20056;-72
2023/04/14 01:57:52;;;;;;;;;;;;;;;4.66;71.49;91697.66;2036021;70;20048;-73
2023/04/14 02:03:50;;;;;;;;;;;;;;;4.56;72.30;91686.56;2035730;70;20135;-74
2023/04/14 02:06:19;;;;;;;;;;;;;;;4.46;72.12;91683.13;2035832;70;20114;-73
2023/04/14 02:08:49;;;;;;;;;;;;;;;4.18;73.45;91679.91;2036003;70;20484;-72
2023/04/14 02:11:19;;;;;;;;;;;;;;;4.17;73.60;91686.06;2032691;70;20052;-73
2023/04/14 02:13:45;;;;;;;;;;;;;;;3.85;74.36;91692.94;2035928;70;20080;-73
2023/04/14 02:19:41;;;;;;;;;;;;;;;3.97;74.71;91702.13;2035556;70;20196;-74
2023/04/14 02:22:07;;;;;;;;;;;;;;;4.05;74.43;91711.75;2032353;70;20055;-74
2023/04/14 02:24:33;;;;;;;;;;;;;;;4.11;74.21;91705.88;2035640;70;20432;-74
2023/04/14 02:27:23;;;;;;;;;;;;;;;4.32;73.48;91705.94;2035328;70;20052;-74
2023/04/14 02:29:52;;;;;;;;;;;;;;;4.27;74.18;91700.69;2035500;70;20067;-75
2023/04/14 02:32:22;;;;;;;;;;;;;;;4.40;72.53;91694.59;2035625;70;20062;-73
2023/04/14 02:35:15;;;;;;;;;;;;;;;4.45;72.07;91696.31;2032217;70;20175;-74
2023/04/14 02:41:11;;;;;;;;;;;;;;;4.39;72.90;91681.25;2035418;70;20107;-74
2023/04/14 02:43:43;;;;;;;;;;;;;;;4.40;72.90;91674.34;2031930;70;20055;-73
2023/04/14 02:46:10;;;;;;;;;;;;;;;4.42;73.27;91680.06;2032339;70;20060;-73
2023/04/14 02:48:37;;;;;;;;;;;;;;;4.31;73.74;91690.53;2035756;70;20555;-73
2023/04/14 02:51:04;;;;;;;;;;;;;;;4.38;73.17;91697.22;2029916;70;20056;-73
2023/04/14 02:57:00;;;;;;;;;;;;;;;4.45;72.94;91703.97;2035843;70;20056;-74
2023/04/14 02:59:32;;;;;;;;;;;;;;;4.52;72.85;91703.03;2032871;70;20060;-72
2023/04/14 03:02:03;;;;;;;;;;;;;;;4.49;72.56;91699.38;2032514;70;20175;-73
2023/04/14 03:08:02;;;;;;;;;;;;;;;4.45;72.46;91699.13;2035833;70;20400;-72
2023/04/14 03:13:58;;;;;;;;;;;;;;;4.49;72.70;91709.78;2035441;70;20543;-73
2023/04/14 03:19:52;;;;;;;;;;;;;;;4.02;73.59;91712.94;2035398;70;20495;-73
2023/04/14 03:22:19;;;;;;;;;;;;;;;4.24;73.45;91713.00;2032006;70;20068;-73
2023/04/14 03:24:46;;;;;;;;;;;;;;;4.21;73.58;91706.56;2032078;70;20516;-73
2023/04/14 03:27:15;;;;;;;;;;;;;;;4.19;74.12;91708.50;2035333;70;20533;-73
2023/04/14 03:29:47;;;;;;;;;;;;;;;4.18;73.31;91707.03;2041181;69;20053;-72
2023/04/14 03:32:15;;;;;;;;;;;;;;;4.25;73.70;91704.03;2054742;69;20131;-73
2023/04/14 03:34:42;;;;;;;;;;;;;;;4.22;73.73;91699.69;2058428;69;20050;-73
2023/04/14 03:37:12;;;;;;;;;;;;;;;4.20;73.50;91702.31;2058406;69;20128;-73
2023/04/14 03:43:11;;;;;;;;;;;;;;;4.33;73.74;91698.28;2058514;69;20088;-73
2023/04/14 03:45:39;;;;;;;;;;;;;;;4.33;74.01;91699.03;2054800;69;20425;-73
2023/04/14 03:51:38;;;;;;;;;;;;;;;4.27;73.71;91695.84;2058216;69;20520;-73
2023/04/14 03:54:05;;;;;;;;;;;;;;;4.28;73.65;91705.66;2058246;69;20085;-73
2023/04/14 03:56:36;;;;;;;;;;;;;;;4.31;73.45;91718.41;2054231;69;20056;-73
2023/04/14 03:59:04;;;;;;;;;;;;;;;4.36;73.45;91707.53;2058452;69;20058;-73
2023/04/14 04:01:31;;;;;;;;;;;;;;;4.32;73.99;91707.97;2057466;69;20437;-73
2023/04/14 04:03:59;;;;;;;;;;;;;;;4.30;73.79;91707.84;2058114;69;20064;-72
2023/04/14 04:06:26;;;;;;;;;;;;;;;4.33;73.53;91701.09;2054536;69;20157;-73
2023/04/14 04:08:55;;;;;;;;;;;;;;;4.37;73.29;91709.72;2054526;69;20120;-73
2023/04/14 04:11:21;;;;;;;;;;;;;;;4.44;72.69;91700.41;2057883;69;20501;-72
2023/04/14 04:13:50;;;;;;;;;;;;;;;4.45;72.77;91701.16;2054734;69;20042;-73
2023/04/14 04:16:16;;;;;;;;;;;;;;;4.36;73.35;91705.47;2054407;69;20359;-73
2023/04/14 04:18:45;;;;;;;;;;;;;;;4.37;73.49;91706.94;2054455;69;20501;-73
2023/04/14 04:24:41;;;;;;;;;;;;;;;4.05;74.56;91705.47;2058423;69;20140;-73
2023/04/14 04:27:14;;;;;;;;;;;;;;;4.28;74.06;91711.22;2054566;69;20054;-73
2023/04/14 04:29:41;;;;;;;;;;;;;;;4.33;73.77;91707.38;2049200;69;20069;-73
2023/04/14 04:32:07;;;;;;;;;;;;;;;4.42;73.62;91710.72;2035123;70;20476;-72
2023/04/14 04:34:33;;;;;;;;;;;;;;;4.40;73.63;91719.69;2031982;70;20708;-73
2023/04/14 04:37:01;;;;;;;;;;;;;;;4.46;73.73;91722.13;2031527;70;20060;-73
2023/04/14 04:42:55;;;;;;;;;;;;;;;4.48;73.43;91722.25;2035123;70;20170;-72
2023/04/14 04:45:40;;;;;;;;;;;;;;;4.49;73.71;91729.28;2032090;70;20068;-72
2023/04/14 04:48:07;;;;;;;;;;;;;;;4.49;73.28;91720.94;2031979;70;20146;-72
2023/04/14 04:50:32;;;;;;;;;;;;;;;4.49;73.87;91732.84;2035253;70;20693;-72
2023/04/14 04:52:58;;;;;;;;;;;;;;;4.49;74.16;91737.66;2035381;70;20179;-73
2023/04/14 04:55:23;;;;;;;;;;;;;;;4.42;74.00;91728.16;2035582;70;20048;-73
2023/04/14 05:01:18;;;;;;;;;;;;;;;4.55;73.97;91747.16;2035173;70;20055;-72
2023/04/14 05:07:12;;;;;;;;;;;;;;;4.62;73.30;91753.13;2035595;70;20051;-73
2023/04/14 05:09:37;;;;;;;;;;;;;;;4.57;73.50;91752.88;2035266;70;20053;-73
2023/04/14 05:12:03;;;;;;;;;;;;;;;4.56;73.94;91756.97;2032193;70;20053;-73
2023/04/14 05:14:28;;;;;;;;;;;;;;;4.48;73.28;91756.44;2035620;70;20177;-74
2023/04/14 05:16:54;;;;;;;;;;;;;;;4.58;73.78;91759.91;2032395;70;20045;-74
2023/04/14 05:19:19;;;;;;;;;;;;;;;4.54;73.76;91744.97;2035670;70;20553;-73
2023/04/14 05:21:45;;;;;;;;;;;;;;;4.55;73.53;91749.22;2035740;70;20444;-74
2023/04/14 05:24:11;;;;;;;;;;;;;;;4.48;73.67;91750.84;2035411;70;20064;-73
2023/04/14 05:26:36;;;;;;;;;;;;;;;4.58;74.27;91748.00;2035491;70;20087;-73
2023/04/14 05:29:01;;;;;;;;;;;;;;;4.62;73.77;91739.94;2035369;70;20203;-75
2023/04/14 05:31:27;;;;;;;;;;;;;;;4.66;73.45;91736.69;2032117;70;20064;-74
2023/04/14 05:33:52;;;;;;;;;;;;;;;4.66;73.85;91742.25;2035737;70;20059;-74
2023/04/14 05:36:18;;;;;;;;;;;;;;;4.80;73.06;91746.72;2035497;70;20095;-74
2023/04/14 05:38:43;;;;;;;;;;;;;;;4.84;72.85;91744.19;2035797;70;20044;-74
2023/04/14 05:41:09;;;;;;;;;;;;;;;4.81;73.09;91744.66;2035932;70;20064;-74
2023/04/14 05:47:03;;;;;;;;;;;;;;;4.90;72.17;91752.22;2035612;70;20260;-74
2023/04/14 05:52:56;;;;;;;;;;;;;;;4.95;73.31;91761.59;2035784;70;20048;-73
2023/04/14 05:55:21;;;;;;;;;;;;;;;4.92;73.18;91757.94;2035744;70;20435;-72
2023/04/14 05:57:47;;;;;;;;;;;;;;;4.95;72.96;91762.34;2035760;70;20056;-73
2023/04/14 06:00:12;;;;;;;;;;;;;;;5.04;73.52;91753.19;2035407;70;20215;-74
2023/04/14 06:06:07;;;;;;;;;;;;;;;5.22;72.74;91759.22;2035555;70;20055;-74
2023/04/14 06:08:33;;;;;;;;;;;;;;;5.20;72.95;91769.50;2035732;70;20048;-74
2023/04/14 06:10:58;;;;;;;;;;;;;;;5.15;73.68;91765.00;2035727;70;20064;-74
2023/04/14 06:13:24;;;;;;;;;;;;;;;5.25;73.15;91763.59;2035612;70;20088;-74
2023/04/14 06:15:49;;;;;;;;;;;;;;;5.21;72.83;91765.38;2035511;70;20100;-74
2023/04/14 06:18:15;;;;;;;;;;;;;;;5.34;72.54;91767.63;2035573;70;20159;-75
2023/04/14 06:20:41;;;;;;;;;;;;;;;5.44;72.04;91768.28;2035742;70;20098;-72
2023/04/14 06:23:06;;;;;;;;;;;;;;;5.45;72.48;91757.84;2035301;70;20175;-73
2023/04/14 06:25:33;;;;;;;;;;;;;;;5.46;72.84;91759.31;2032389;70;20147;-73
2023/04/14 06:28:02;;;;;;;;;;;;;;;5.46;73.39;91751.66;2035680;70;20048;-75
2023/04/14 06:30:28;;;;;;;;;;;;;;;5.58;72.87;91755.22;2035406;70;20449;-74
2023/04/14 06:32:54;;;;;;;;;;;;;;;5.52;73.23;91756.91;2035527;70;20058;-77
2023/04/14 06:35:19;;;;;;;;;;;;;;;5.67;71.88;91756.47;2032439;70;20136;-76
2023/04/14 06:37:45;;;;;;;;;;;;;;;5.83;71.28;91754.69;2035738;70;20068;-74
2023/04/14 06:40:10;;;;;;;;;;;;;;;5.77;71.15;91754.34;2036363;70;20064;-77
2023/04/14 06:42:36;;;;;;;;;;;;;;;5.80;71.68;91757.97;2036272;70;20472;-77
2023/04/14 06:45:01;;;;;;;;;;;;;;;5.91;71.24;91757.28;2035747;70;20078;-76
2023/04/14 06:47:26;;;;;;;;;;;;;;;5.93;70.84;91759.50;2035795;70;20049;-76
2023/04/14 06:49:52;;;;;;;;;;;;;;;5.96;71.50;91767.41;2047109;70;20108;-76
2023/04/14 06:52:17;;;;;;;;;;;;;;;5.82;71.43;91761.63;2055049;70;20054;-77
2023/04/14 06:54:43;;;;;;;;;;;;;;;5.98;70.80;91767.50;2039354;70;20137;-77
2023/04/14 06:57:08;;;;;;;;;;;;;;;5.98;70.95;91764.72;2054752;70;20137;-76
2023/04/14 06:59:34;;;;;;;;;;;;;;;5.75;72.12;91756.97;2054880;69;20108;-73
2023/04/14 07:02:00;;;;;;;;;;;;;;;5.98;71.63;91761.91;2054803;70;20108;-75
2023/04/14 07:04:25;;;;;;;;;;;;;;;5.66;71.76;91763.38;2054871;70;20110;-76
2023/04/14 07:06:51;;;;;;;;;;;;;;;5.23;73.39;91763.47;2054760;70;20057;-76
2023/04/14 07:09:17;;;;;;;;;;;;;;;5.38;73.33;91761.59;2054851;70;20141;-75
2023/04/14 07:11:45;;;;;;;;;;;;;;;5.67;72.61;91755.75;2038549;70;20054;-76
2023/04/14 07:14:10;;;;;;;;;;;;;;;5.80;71.25;91761.47;2054839;69;20054;-76
2023/04/14 07:16:36;;;;;;;;;;;;;;;5.72;70.98;91766.56;2054508;70;20116;-75
2023/04/14 07:22:30;;;;;;;;;;;;;;;6.10;71.03;91759.16;2054572;70;20161;-75
2023/04/14 07:24:55;;;;;;;;;;;;;;;6.19;69.95;91760.41;2054736;70;20589;-76
2023/04/14 07:27:21;;;;;;;;;;;;;;;6.34;70.11;91769.03;2054601;69;20055;-76
2023/04/14 07:29:46;;;;;;;;;;;;;;;6.44;69.95;91763.31;2047933;69;20116;-75
2023/04/14 07:32:12;;;;;;;;;;;;;;;6.36;70.49;91769.13;2038549;70;20063;-73
2023/04/14 07:34:40;;;;;;;;;;;;;;;6.72;67.77;91772.69;2038838;70;20060;-73
2023/04/14 07:37:05;;;;;;;;;;;;;;;6.98;68.43;91773.53;2038638;70;20071;-74
2023/04/14 07:39:31;;;;;;;;;;;;;;;7.12;68.83;91776.41;2038737;70;20048;-74
2023/04/14 07:41:57;;;;;;;;;;;;;;;7.21;67.44;91772.75;2038670;70;20147;-74
2023/04/14 07:44:23;;;;;;;;;;;;;;;7.32;69.04;91771.25;2038888;70;20051;-74
2023/04/14 07:46:48;;;;;;;;;;;;;;;7.35;69.27;91779.16;2051178;70;20483;-75
2023/04/14 07:49:13;;;;;;;;;;;;;;;7.37;67.34;91789.75;2038765;70;20144;-75
2023/04/14 07:51:39;;;;;;;;;;;;;;;7.12;67.61;91787.63;2038710;70;20044;-75
2023/04/14 07:54:04;;;;;;;;;;;;;;;7.03;67.00;91791.28;2038804;70;20639;-73
2023/04/14 07:56:30;;;;;;;;;;;;;;;7.09;67.18;91797.22;2038803;70;20054;-74
2023/04/14 07:58:56;;;;;;;;;;;;;;;6.85;67.03;91799.31;2038761;70;20056;-76
2023/04/14 08:01:21;;;;;;;;;;;;;;;6.92;68.05;91795.56;2038682;70;20048;-76
2023/04/14 08:03:46;;;;;;;;;;;;;;;7.39;68.04;91801.81;2038715;70;20529;-75
2023/04/14 08:06:12;;;;;;;;;;;;;;;7.58;66.78;91803.56;2051469;70;20144;-76
2023/04/14 08:08:38;;;;;;;;;;;;;;;6.82;67.89;91803.31;2051478;70;20514;-74
2023/04/14 08:11:04;;;;;;;;;;;;;;;6.93;69.43;91802.59;2038717;70;20122;-74
2023/04/14 08:13:29;;;;;;;;;;;;;;;6.98;66.27;91803.56;2038753;70;20146;-76
2023/04/14 08:15:55;;;;;;;;;;;;;;;7.46;65.73;91805.66;2038600;70;20555;-74
2023/04/14 08:18:20;;;;;;;;;;;;;;;7.68;64.63;91811.81;2038747;70;20062;-74
2023/04/14 08:20:46;;;;;;;;;;;;;;;7.40;65.79;91810.94;2038533;69;20139;-75
2023/04/14 08:23:11;;;;;;;;;;;;;;;6.85;67.90;91818.91;2038879;70;20051;-74
2023/04/14 08:25:37;;;;;;;;;;;;;;;7.14;65.73;91816.44;2038705;70;20489;-75
2023/04/14 08:28:02;;;;;;;;;;;;;;;7.10;67.92;91818.25;2038889;70;20044;-76
2023/04/14 08:30:28;;;;;;;;;;;;;;;7.64;66.43;91811.59;2039028;69;20051;-74
2023/04/14 08:32:54;;;;;;;;;;;;;;;7.15;64.60;91808.78;2039157;70;20095;-74
2023/04/14 08:35:22;;;;;;;;;;;;;;;7.39;66.40;91818.59;2038856;70;20205;-74
2023/04/14 08:37:48;;;;;;;;;;;;;;;7.53;64.56;91820.75;2039109;69;20487;-73
2023/04/14 08:40:15;;;;;;;;;;;;;;;7.49;64.23;91818.47;2039250;70;20052;-74
2023/04/14 08:42:40;;;;;;;;;;;;;;;7.09;64.64;91819.63;2039148;70;20433;-74
2023/04/14 08:45:06;;;;;;;;;;;;;;;7.37;64.49;91815.66;2051807;70;20056;-75
2023/04/14 08:47:34;;;;;;;;;;;;;;;7.28;64.73;91818.63;2039128;70;20061;-74
2023/04/14 08:50:03;;;;;;;;;;;;;;;7.41;63.47;91820.78;2039227;69;20105;-75
2023/04/14 08:52:30;;;;;;;;;;;;;;;7.12;64.25;91827.53;2052101;70;20052;-74
2023/04/14 08:54:56;;;;;;;;;;;;;;;6.49;68.39;91823.75;2039366;70;20071;-72
2023/04/14 08:57:24;;;;;;;;;;;;;;;6.16;67.81;91818.22;2040208;70;20502;-75
2023/04/14 08:59:50;;;;;;;;;;;;;;;7.21;66.02;91817.53;2041405;69;20147;-74
2023/04/14 09:02:17;;;;;;;;;;;;;;;7.71;64.17;91818.28;2040380;70;20496;-72
2023/04/14 09:04:44;;;;;;;;;;;;;;;8.22;63.94;91824.66;2040004;70;20060;-76
2023/04/14 09:07:12;;;;;;;;;;;;;;;8.32;62.51;91825.19;2039275;70;20480;-75
2023/04/14 09:09:38;;;;;;;;;;;;;;;8.68;62.55;91819.41;2039277;70;20055;-75
2023/04/14 09:12:03;;;;;;;;;;;;;;;8.19;62.12;91828.66;2039434;70;20052;-74
2023/04/14 09:14:29;;;;;;;;;;;;;;;8.31;62.22;91818.13;2039219;70;20044;-75
2023/04/14 09:16:55;;;;;;;;;;;;;;;8.23;61.81;91820.50;2039090;70;20091;-74
2023/04/14 09:19:23;;;;;;;;;;;;;;;8.37;61.74;91824.09;2039079;70;20048;-74
2023/04/14 09:21:48;;;;;;;;;;;;;;;8.59;61.73;91833.00;2039289;70;20048;-74
2023/04/14 09:24:27;;;;;;;;;;;;;;;8.46;60.55;91824.53;2039052;70;20122;-77
2023/04/14 09:26:53;;;;;;;;;;;;;;;8.65;62.21;91838.94;2037676;70;20059;-73
2023/04/14 09:29:19;;;;;;;;;;;;;;;8.73;62.38;91835.09;2039141;69;20052;-73
2023/04/14 09:31:44;;;;;;;;;;;;;;;8.91;61.16;91839.63;2038985;70;20122;-74
2023/04/14 09:34:20;;;;;;;;;;;;;;;8.68;62.42;91847.47;2038977;70;20043;-76
2023/04/14 09:40:27;;;;;;;;;;;;;;;8.26;61.70;91847.31;2039119;70;20217;-74
2023/04/14 09:42:54;;;;;;;;;;;;;;;7.81;62.21;91846.88;2039205;70;20052;-78
2023/04/14 09:45:21;;;;;;;;;;;;;;;8.39;61.55;91854.34;2051791;70;20060;-80
2023/04/14 09:47:47;;;;;;;;;;;;;;;8.43;59.78;91856.63;2038803;70;20080;-76
2023/04/14 09:50:13;;;;;;;;;;;;;;;8.32;62.12;91852.50;2051874;70;20092;-76
2023/04/14 09:52:39;;;;;;;;;;;;;;;8.72;60.79;91853.31;2051787;70;20143;-77
2023/04/14 09:55:09;;;;;;;;;;;;;;;9.11;61.34;91864.47;2039102;70;20059;-72
2023/04/14 10:01:04;;;;;;;;;;;;;;;9.51;57.93;91862.31;2039025;70;20423;-80
2023/04/14 10:03:43;;;;;;;;;;;;;;;9.72;57.22;91862.00;2039042;70;20048;-78
2023/04/14 10:06:18;;;;;;;;;;;;;;;9.60;59.19;91861.38;2039099;69;20055;-77
2023/04/14 10:08:47;;;;;;;;;;;;;;;9.96;56.54;91853.31;2039080;70;20052;-79
2023/04/14 10:11:14;;;;;;;;;;;;;;;9.84;55.23;91848.53;2039413;69;20047;-76
2023/04/14 10:13:40;;;;;;;;;;;;;;;9.42;57.63;91852.75;2040963;70;20084;-79
2023/04/14 10:16:05;;;;;;;;;;;;;;;9.03;58.21;91844.44;2038917;70;20171;-78
2023/04/14 10:18:31;;;;;;;;;;;;;;;9.17;57.73;91842.34;2039015;70;20139;-80
2023/04/14 10:20:57;;;;;;;;;;;;;;;9.65;57.51;91843.38;2038922;70;20443;-79
2023/04/14 10:23:23;;;;;;;;;;;;;;;8.79;57.83;91847.38;2039154;69;20133;-77
2023/04/14 10:25:49;;;;;;;;;;;;;;;9.33;55.63;91842.44;2039001;70;20467;-77
2023/04/14 10:28:15;;;;;;;;;;;;;;;8.98;57.15;91837.13;2039026;70;20051;-78
2023/04/14 10:30:42;;;;;;;;;;;;;;;9.34;56.98;91838.28;2054690;69;20058;-78
2023/04/14 10:33:08;;;;;;;;;;;;;;;9.09;57.69;91828.63;2055260;69;20057;-77
2023/04/14 10:35:39;;;;;;;;;;;;;;;10.62;54.97;91832.59;2055097;69;20077;-78
2023/04/14 10:38:05;;;;;;;;;;;;;;;9.57;54.64;91835.25;2058542;69;20056;-78
2023/04/14 10:40:44;;;;;;;;;;;;;;;10.63;53.65;91831.25;2059575;69;20046;-80
2023/04/14 10:43:12;;;;;;;;;;;;;;;11.14;52.05;91820.19;2058680;69;20062;-78
2023/04/14 10:45:54;;;;;;;;;;;;;;;10.92;52.54;91816.38;2058446;69;20137;-76
2023/04/14 10:48:23;;;;;;;;;;;;;;;10.90;54.03;91805.00;2058558;69;20064;-73
2023/04/14 10:50:49;;;;;;;;;;;;;;;11.70;51.49;91806.38;2054792;69;20086;-72
2023/04/14 10:53:14;;;;;;;;;;;;;;;12.19;49.11;91805.63;2058488;69;20116;-75
2023/04/14 10:55:44;;;;;;;;;;;;;;;12.14;49.86;91807.53;2058491;69;20120;-73
2023/04/14 10:58:16;;;;;;;;;;;;;;;11.79;50.61;91807.47;2058539;69;20050;-76
2023/04/14 11:00:42;;;;;;;;;;;;;;;11.91;50.35;91797.44;2058415;69;20050;-77
2023/04/14 11:03:09;;;;;;;;;;;;;;;13.71;46.35;91807.81;2058497;69;20061;-78
2023/04/14 11:05:35;;;;;;;;;;;;;;;14.94;42.63;91794.84;2058495;69;20054;-77
2023/04/14 11:08:11;;;;;;;;;;;;;;;14.26;44.79;91791.97;2058534;69;20049;-77
2023/04/14 11:10:36;;;;;;;;;;;;;;;14.27;43.96;91790.59;2054946;69;20181;-77
2023/04/14 11:13:04;;;;;;;;;;;;;;;13.58;45.67;91788.25;2058561;69;20433;-77
2023/04/14 11:15:41;;;;;;;;;;;;;;;13.42;46.65;91782.72;2058345;69;20058;-76
2023/04/14 11:18:18;;;;;;;;;;;;;;;14.45;46.64;91791.16;2058565;69;20165;-76
2023/04/14 11:20:43;;;;;;;;;;;;;;;13.01;46.01;91778.41;2058410;69;20086;-76
2023/04/14 11:23:11;;;;;;;;;;;;;;;12.12;50.14;91781.34;2058342;69;20097;-75
2023/04/14 11:25:38;;;;;;;;;;;;;;;14.21;47.02;91785.44;2058406;69;20054;-73
2023/04/14 11:28:03;;;;;;;;;;;;;;;16.09;42.04;91784.59;2054809;69;20112;-75
2023/04/14 11:30:29;;;;;;;;;;;;;;;15.82;40.80;91783.88;2041991;69;20056;-75
2023/04/14 11:32:58;;;;;;;;;;;;;;;15.68;41.64;91775.72;2035582;70;20059;-77
2023/04/14 11:35:28;;;;;;;;;;;;;;;14.51;42.10;91770.13;2035588;70;20070;-76
2023/04/14 11:37:54;;;;;;;;;;;;;;;15.82;40.65;91768.97;2035542;70;20064;-75
2023/04/14 11:40:20;;;;;;;;;;;;;;;16.69;38.38;91768.31;2035610;70;20131;-77
2023/04/14 11:42:49;;;;;;;;;;;;;;;18.01;36.69;91772.53;2035593;70;20075;-76
2023/04/14 11:45:15;;;;;;;;;;;;;;;19.22;33.85;91769.53;2031850;70;20049;-75
2023/04/14 11:47:47;;;;;;;;;;;;;;;16.55;36.48;91765.13;2035001;70;20055;-72
2023/04/14 11:50:13;;;;;;;;;;;;;;;18.69;36.84;91768.72;2034648;70;20061;-73
2023/04/14 11:52:42;;;;;;;;;;;;;;;21.15;32.49;91765.16;2034799;70;20421;-73
2023/04/14 11:55:08;;;;;;;;;;;;;;;20.06;32.40;91751.31;2029127;70;20200;-73
2023/04/14 11:57:35;;;;;;;;;;;;;;;19.79;30.76;91750.28;2035150;70;20159;-72
2023/04/14 12:00:00;;;;;;;;;;;;;;;19.34;32.55;91752.59;2035133;70;20045;-72
2023/04/14 12:02:26;;;;;;;;;;;;;;;20.89;31.81;91756.38;2035217;70;20080;-72
2023/04/14 12:04:52;;;;;;;;;;;;;;;18.18;31.83;91750.75;2035177;70;20405;-75
2023/04/14 12:07:18;;;;;;;;;;;;;;;17.52;33.09;91755.19;2035350;70;20174;-76
2023/04/14 12:13:12;;;;;;;;;;;;;;;15.45;36.39;91750.94;2035502;70;20058;-75
2023/04/14 12:15:40;;;;;;;;;;;;;;;13.97;35.85;91751.41;2035301;70;20080;-76
2023/04/14 12:18:10;;;;;;;;;;;;;;;14.06;35.97;91743.91;2035350;70;20431;-77
2023/04/14 12:20:45;;;;;;;;;;;;;;;14.53;37.13;91739.03;2035432;70;20499;-74
2023/04/14 12:23:10;;;;;;;;;;;;;;;14.40;37.86;91743.56;2035308;70;20443;-77
2023/04/14 12:25:36;;;;;;;;;;;;;;;13.75;37.54;91738.63;2035210;70;20068;-76
2023/04/14 12:28:04;;;;;;;;;;;;;;;13.30;38.49;91749.13;2035442;70;20048;-72
2023/04/14 12:30:30;;;;;;;;;;;;;;;13.32;39.89;91735.03;2035243;70;20057;-73
2023/04/14 12:32:56;;;;;;;;;;;;;;;12.70;41.57;91725.72;2035265;70;20072;-78
2023/04/14 12:35:24;;;;;;;;;;;;;;;12.53;42.58;91730.03;2035260;70;20052;-76
2023/04/14 12:37:50;;;;;;;;;;;;;;;13.56;41.30;91734.44;2035207;70;20135;-76
2023/04/14 12:40:16;;;;;;;;;;;;;;;13.41;40.59;91728.28;2035555;70;20315;-78
2023/04/14 12:42:46;;;;;;;;;;;;;;;13.61;41.20;91745.25;2035443;70;20057;-76
2023/04/14 12:45:12;;;;;;;;;;;;;;;12.98;40.90;91751.47;2034949;70;20139;-78
2023/04/14 12:47:37;;;;;;;;;;;;;;;13.48;42.52;91749.03;2035373;70;20485;-74
2023/04/14 12:50:22;;;;;;;;;;;;;;;13.46;43.72;91732.00;2035041;70;20053;-79
2023/04/14 12:52:47;;;;;;;;;;;;;;;13.27;41.21;91739.13;2035329;70;20408;-79
2023/04/14 12:55:20;;;;;;;;;;;;;;;13.51;41.77;91741.34;2035330;70;20055;-79
2023/04/14 12:57:46;;;;;;;;;;;;;;;13.72;41.82;91729.34;2035186;70;20425;-80
2023/04/14 13:00:12;;;;;;;;;;;;;;;15.84;40.94;91727.16;2035342;70;20052;-79
2023/04/14 13:06:07;;;;;;;;;;;;;;;20.02;31.08;91737.72;2035423;70;20138;-77
2023/04/14 13:08:32;;;;;;;;;;;;;;;26.79;22.26;91741.53;2035425;70;20503;-80
2023/04/14 13:10:58;;;;;;;;;;;;;;;20.58;26.40;91730.41;2035277;70;20162;-77
2023/04/14 13:13:23;;;;;;;;;;;;;;;19.92;28.63;91725.44;2032130;70;20048;-74
2023/04/14 13:15:49;;;;;;;;;;;;;;;16.81;32.21;91725.25;2035920;70;20519;-78
2023/04/14 13:18:15;;;;;;;;;;;;;;;16.19;33.54;91717.41;2035832;70;20485;-78
2023/04/14 13:20:41;;;;;;;;;;;;;;;14.99;34.72;91709.25;2035985;70;20119;-76
2023/04/14 13:23:06;;;;;;;;;;;;;;;14.96;36.71;91702.09;2035837;70;20068;-79
2023/04/14 13:25:32;;;;;;;;;;;;;;;15.07;35.24;91708.75;2035982;70;20060;-78
2023/04/14 13:27:57;;;;;;;;;;;;;;;16.63;32.48;91700.00;2035824;70;20049;-76
2023/04/14 13:30:23;;;;;;;;;;;;;;;23.89;25.37;91713.97;2035621;70;20477;-78
2023/04/14 13:32:48;;;;;;;;;;;;;;;28.34;20.75;91723.66;2035736;70;20063;-76
2023/04/14 13:35:14;;;;;;;;;;;;;;;19.70;26.89;91705.94;2032526;70;20060;-77
2023/04/14 13:37:40;;;;;;;;;;;;;;;18.09;29.25;91707.16;2035754;70;20052;-75
2023/04/14 13:40:06;;;;;;;;;;;;;;;15.88;30.54;91687.56;2035988;70;20071;-76
2023/04/14 13:42:31;;;;;;;;;;;;;;;15.08;32.61;91689.66;2032663;70;20493;-79
2023/04/14 13:44:57;;;;;;;;;;;;;;;14.23;32.73;91700.59;2036517;70;20060;-77
2023/04/14 13:47:24;;;;;;;;;;;;;;;14.15;32.66;91685.47;2033926;70;20053;-78
2023/04/14 13:49:49;;;;;;;;;;;;;;;14.51;33.57;91694.38;2033659;70;20084;-80
2023/04/14 13:52:15;;;;;;;;;;;;;;;14.03;33.89;91682.97;2036427;70;20092;-81
2023/04/14 13:54:40;;;;;;;;;;;;;;;14.27;34.94;91685.13;2035908;70;20060;-80
2023/04/14 13:57:06;;;;;;;;;;;;;;;14.61;34.16;91677.69;2035896;70;20103;-80
2023/04/14 13:59:32;;;;;;;;;;;;;;;15.34;32.94;91672.63;2035934;70;20442;-80
2023/04/14 14:01:57;;;;;;;;;;;;;;;16.09;34.15;91674.59;2035729;70;20064;-77
2023/04/14 14:04:23;;;;;;;;;;;;;;;16.12;33.58;91684.59;2035942;70;20520;-79
2023/04/14 14:06:48;;;;;;;;;;;;;;;26.86;23.78;91682.25;2035874;70;20419;-79
2023/04/14 14:09:14;;;;;;;;;;;;;;;29.94;19.89;91689.44;2035681;70;20420;-76
2023/04/14 14:11:42;;;;;;;;;;;;;;;32.00;18.70;91697.59;2035847;70;20064;-77
2023/04/14 14:14:08;;;;;;;;;;;;;;;33.60;16.19;91701.00;2037460;70;20202;-79
2023/04/14 14:16:34;;;;;;;;;;;;;;;30.78;16.81;91692.84;2040325;70;20095;-79
2023/04/14 14:18:59;;;;;;;;;;;;;;;25.04;20.76;91683.75;2039184;70;20135;-80
2023/04/14 14:21:25;;;;;;;;;;;;;;;21.20;26.04;91677.19;2037325;70;20151;-80
2023/04/14 14:23:51;;;;;;;;;;;;;;;19.90;26.37;91677.59;2033259;70;20489;-80